sensor_id;sensor_type;location;lat;lon;timestamp;P1;durP1;ratioP1;P2;durP2;ratioP2
60416;SDS011;46263;44.726;10.396;2024-02-14T00:02:08;17.33;;;9.73;;
60416;SDS011;46263;44.726;10.396;2024-02-14T00:04:33;20.02;;;9.95;;
60416;SDS011;46263;44.726;10.396;2024-02-14T00:06:59;22.60;;;10.38;;
60416;SDS011;46263;44.726;10.396;2024-02-14T00:09:24;19.15;;;10.23;;
60416;SDS011;46263;44.726;10.396;2024-02-14T00:11:50;15.73;;;8.73;;
60416;SDS011;46263;44.726;10.396;2024-02-14T00:14:16;17.55;;;8.50;;
60416;SDS011;46263;44.726;10.396;2024-02-14T00:16:45;14.85;;;7.90;;
60416;SDS011;46263;44.726;10.396;2024-02-14T00:19:11;16.23;;;8.82;;
60416;SDS011;46263;44.726;10.396;2024-02-14T00:21:37;17.65;;;8.07;;
60416;SDS011;46263;44.726;10.396;2024-02-14T00:24:03;16.65;;;7.95;;
60416;SDS011;46263;44.726;10.396;2024-02-14T00:26:30;16.38;;;8.05;;
60416;SDS011;46263;44.726;10.396;2024-02-14T00:28:55;16.38;;;7.85;;
60416;SDS011;46263;44.726;10.396;2024-02-14T00:31:21;11.68;;;7.18;;
60416;SDS011;46263;44.726;10.396;2024-02-14T00:33:47;15.73;;;7.75;;
60416;SDS011;46263;44.726;10.396;2024-02-14T00:36:12;14.93;;;8.10;;
60416;SDS011;46263;44.726;10.396;2024-02-14T00:38:38;26.13;;;9.93;;
60416;SDS011;46263;44.726;10.396;2024-02-14T00:41:03;32.05;;;13.25;;
60416;SDS011;46263;44.726;10.396;2024-02-14T00:43:29;24.58;;;11.88;;
60416;SDS011;46263;44.726;10.396;2024-02-14T00:45:55;31.00;;;11.93;;
60416;SDS011;46263;44.726;10.396;2024-02-14T00:48:22;30.88;;;11.73;;
60416;SDS011;46263;44.726;10.396;2024-02-14T00:50:48;26.38;;;10.98;;
60416;SDS011;46263;44.726;10.396;2024-02-14T00:53:14;26.88;;;11.30;;
60416;SDS011;46263;44.726;10.396;2024-02-14T00:55:39;27.63;;;10.40;;
60416;SDS011;46263;44.726;10.396;2024-02-14T00:58:05;19.13;;;8.98;;
60416;SDS011;46263;44.726;10.396;2024-02-14T01:00:30;25.92;;;10.00;;
60416;SDS011;46263;44.726;10.396;2024-02-14T01:02:57;17.67;;;8.50;;
60416;SDS011;46263;44.726;10.396;2024-02-14T01:05:23;16.35;;;7.57;;
60416;SDS011;46263;44.726;10.396;2024-02-14T01:07:49;22.75;;;9.18;;
60416;SDS011;46263;44.726;10.396;2024-02-14T01:10:15;16.52;;;8.65;;
60416;SDS011;46263;44.726;10.396;2024-02-14T01:12:40;19.70;;;8.25;;
60416;SDS011;46263;44.726;10.396;2024-02-14T01:15:06;17.23;;;7.75;;
60416;SDS011;46263;44.726;10.396;2024-02-14T01:17:32;12.32;;;5.63;;
60416;SDS011;46263;44.726;10.396;2024-02-14T01:19:58;11.68;;;5.35;;
60416;SDS011;46263;44.726;10.396;2024-02-14T01:22:24;7.00;;;4.45;;
60416;SDS011;46263;44.726;10.396;2024-02-14T01:24:49;8.65;;;4.15;;
60416;SDS011;46263;44.726;10.396;2024-02-14T01:27:15;12.23;;;3.92;;
60416;SDS011;46263;44.726;10.396;2024-02-14T01:29:41;10.20;;;4.80;;
60416;SDS011;46263;44.726;10.396;2024-02-14T01:32:07;7.78;;;3.80;;
60416;SDS011;46263;44.726;10.396;2024-02-14T01:34:34;8.50;;;3.78;;
60416;SDS011;46263;44.726;10.396;2024-02-14T01:37:00;7.38;;;4.28;;
60416;SDS011;46263;44.726;10.396;2024-02-14T01:39:25;14.95;;;6.32;;
60416;SDS011;46263;44.726;10.396;2024-02-14T01:41:51;16.58;;;8.52;;
60416;SDS011;46263;44.726;10.396;2024-02-14T01:44:17;22.30;;;9.57;;
60416;SDS011;46263;44.726;10.396;2024-02-14T01:46:43;25.42;;;11.23;;
60416;SDS011;46263;44.726;10.396;2024-02-14T01:49:10;34.65;;;13.82;;
60416;SDS011;46263;44.726;10.396;2024-02-14T01:51:40;31.02;;;13.30;;
60416;SDS011;46263;44.726;10.396;2024-02-14T01:54:10;27.63;;;13.55;;
60416;SDS011;46263;44.726;10.396;2024-02-14T01:56:37;23.90;;;11.25;;
60416;SDS011;46263;44.726;10.396;2024-02-14T01:59:03;23.58;;;9.80;;
60416;SDS011;46263;44.726;10.396;2024-02-14T02:01:31;19.35;;;8.75;;
60416;SDS011;46263;44.726;10.396;2024-02-14T02:03:56;16.15;;;7.70;;
60416;SDS011;46263;44.726;10.396;2024-02-14T02:06:22;12.43;;;7.43;;
60416;SDS011;46263;44.726;10.396;2024-02-14T02:08:48;14.00;;;6.95;;
60416;SDS011;46263;44.726;10.396;2024-02-14T02:11:14;15.35;;;7.07;;
60416;SDS011;46263;44.726;10.396;2024-02-14T02:13:40;12.50;;;5.72;;
60416;SDS011;46263;44.726;10.396;2024-02-14T02:16:06;8.02;;;4.70;;
60416;SDS011;46263;44.726;10.396;2024-02-14T02:18:31;9.52;;;5.72;;
60416;SDS011;46263;44.726;10.396;2024-02-14T02:20:57;6.40;;;3.88;;
60416;SDS011;46263;44.726;10.396;2024-02-14T02:23:23;9.07;;;4.72;;
60416;SDS011;46263;44.726;10.396;2024-02-14T02:25:48;5.90;;;3.90;;
60416;SDS011;46263;44.726;10.396;2024-02-14T02:28:15;7.90;;;4.18;;
60416;SDS011;46263;44.726;10.396;2024-02-14T02:30:41;5.13;;;4.07;;
60416;SDS011;46263;44.726;10.396;2024-02-14T02:33:07;6.95;;;3.90;;
60416;SDS011;46263;44.726;10.396;2024-02-14T02:35:33;7.50;;;4.30;;
60416;SDS011;46263;44.726;10.396;2024-02-14T02:37:59;9.23;;;5.32;;
60416;SDS011;46263;44.726;10.396;2024-02-14T02:40:25;5.63;;;4.15;;
60416;SDS011;46263;44.726;10.396;2024-02-14T02:42:52;10.23;;;4.93;;
60416;SDS011;46263;44.726;10.396;2024-02-14T02:45:18;7.43;;;4.28;;
60416;SDS011;46263;44.726;10.396;2024-02-14T02:47:44;5.72;;;3.92;;
60416;SDS011;46263;44.726;10.396;2024-02-14T02:50:10;6.20;;;4.20;;
60416;SDS011;46263;44.726;10.396;2024-02-14T02:52:35;7.35;;;4.13;;
60416;SDS011;46263;44.726;10.396;2024-02-14T02:55:01;7.75;;;4.60;;
60416;SDS011;46263;44.726;10.396;2024-02-14T02:57:28;8.45;;;4.28;;
60416;SDS011;46263;44.726;10.396;2024-02-14T02:59:54;8.23;;;4.10;;
60416;SDS011;46263;44.726;10.396;2024-02-14T03:02:20;8.50;;;4.55;;
60416;SDS011;46263;44.726;10.396;2024-02-14T03:04:46;9.75;;;5.03;;
60416;SDS011;46263;44.726;10.396;2024-02-14T03:07:12;12.80;;;4.85;;
60416;SDS011;46263;44.726;10.396;2024-02-14T03:09:37;7.20;;;4.68;;
60416;SDS011;46263;44.726;10.396;2024-02-14T03:12:03;10.35;;;4.95;;
60416;SDS011;46263;44.726;10.396;2024-02-14T03:14:32;14.48;;;5.28;;
60416;SDS011;46263;44.726;10.396;2024-02-14T03:17:01;12.15;;;5.15;;
60416;SDS011;46263;44.726;10.396;2024-02-14T03:19:27;7.07;;;4.30;;
60416;SDS011;46263;44.726;10.396;2024-02-14T03:21:53;14.45;;;5.68;;
60416;SDS011;46263;44.726;10.396;2024-02-14T03:24:19;16.15;;;5.50;;
60416;SDS011;46263;44.726;10.396;2024-02-14T03:26:45;9.40;;;5.68;;
60416;SDS011;46263;44.726;10.396;2024-02-14T03:29:11;17.02;;;4.80;;
60416;SDS011;46263;44.726;10.396;2024-02-14T03:31:37;8.68;;;4.85;;
60416;SDS011;46263;44.726;10.396;2024-02-14T03:34:04;10.48;;;4.88;;
60416;SDS011;46263;44.726;10.396;2024-02-14T03:36:30;10.07;;;4.72;;
60416;SDS011;46263;44.726;10.396;2024-02-14T03:38:57;7.82;;;5.47;;
60416;SDS011;46263;44.726;10.396;2024-02-14T03:41:24;6.88;;;4.25;;
60416;SDS011;46263;44.726;10.396;2024-02-14T03:43:49;10.65;;;4.60;;
60416;SDS011;46263;44.726;10.396;2024-02-14T03:46:17;8.82;;;5.63;;
60416;SDS011;46263;44.726;10.396;2024-02-14T03:48:46;10.80;;;5.05;;
60416;SDS011;46263;44.726;10.396;2024-02-14T03:51:12;8.93;;;4.72;;
60416;SDS011;46263;44.726;10.396;2024-02-14T03:53:38;11.10;;;6.00;;
60416;SDS011;46263;44.726;10.396;2024-02-14T03:56:04;15.63;;;6.50;;
60416;SDS011;46263;44.726;10.396;2024-02-14T03:58:32;13.05;;;7.68;;
60416;SDS011;46263;44.726;10.396;2024-02-14T04:01:01;16.95;;;7.53;;
60416;SDS011;46263;44.726;10.396;2024-02-14T04:03:27;16.73;;;7.75;;
60416;SDS011;46263;44.726;10.396;2024-02-14T04:05:54;15.77;;;7.07;;
60416;SDS011;46263;44.726;10.396;2024-02-14T04:08:19;14.23;;;7.68;;
60416;SDS011;46263;44.726;10.396;2024-02-14T04:10:45;15.60;;;6.35;;
60416;SDS011;46263;44.726;10.396;2024-02-14T04:13:11;18.73;;;6.50;;
60416;SDS011;46263;44.726;10.396;2024-02-14T04:15:36;13.93;;;6.22;;
60416;SDS011;46263;44.726;10.396;2024-02-14T04:18:02;13.85;;;6.40;;
60416;SDS011;46263;44.726;10.396;2024-02-14T04:20:29;13.18;;;6.10;;
60416;SDS011;46263;44.726;10.396;2024-02-14T04:22:54;10.63;;;5.03;;
60416;SDS011;46263;44.726;10.396;2024-02-14T04:25:21;11.27;;;5.22;;
60416;SDS011;46263;44.726;10.396;2024-02-14T04:27:47;10.85;;;5.75;;
60416;SDS011;46263;44.726;10.396;2024-02-14T04:30:13;20.25;;;5.65;;
60416;SDS011;46263;44.726;10.396;2024-02-14T04:32:38;17.48;;;7.10;;
60416;SDS011;46263;44.726;10.396;2024-02-14T04:35:04;21.60;;;7.18;;
60416;SDS011;46263;44.726;10.396;2024-02-14T04:37:30;15.73;;;6.88;;
60416;SDS011;46263;44.726;10.396;2024-02-14T04:39:55;21.25;;;7.80;;
60416;SDS011;46263;44.726;10.396;2024-02-14T04:42:21;19.30;;;8.07;;
60416;SDS011;46263;44.726;10.396;2024-02-14T04:44:47;16.02;;;5.38;;
60416;SDS011;46263;44.726;10.396;2024-02-14T04:47:12;16.08;;;5.57;;
60416;SDS011;46263;44.726;10.396;2024-02-14T04:49:38;13.27;;;5.95;;
60416;SDS011;46263;44.726;10.396;2024-02-14T04:52:03;18.75;;;6.65;;
60416;SDS011;46263;44.726;10.396;2024-02-14T04:54:29;7.97;;;4.20;;
60416;SDS011;46263;44.726;10.396;2024-02-14T04:56:55;11.00;;;4.45;;
60416;SDS011;46263;44.726;10.396;2024-02-14T04:59:20;8.63;;;4.35;;
60416;SDS011;46263;44.726;10.396;2024-02-14T05:01:46;12.00;;;4.60;;
60416;SDS011;46263;44.726;10.396;2024-02-14T05:04:12;8.32;;;4.68;;
60416;SDS011;46263;44.726;10.396;2024-02-14T05:06:38;14.00;;;4.65;;
60416;SDS011;46263;44.726;10.396;2024-02-14T05:09:04;12.85;;;4.65;;
60416;SDS011;46263;44.726;10.396;2024-02-14T05:11:30;10.48;;;4.15;;
60416;SDS011;46263;44.726;10.396;2024-02-14T05:13:56;6.22;;;3.90;;
60416;SDS011;46263;44.726;10.396;2024-02-14T05:16:21;7.53;;;4.07;;
60416;SDS011;46263;44.726;10.396;2024-02-14T05:18:47;12.02;;;5.10;;
60416;SDS011;46263;44.726;10.396;2024-02-14T05:21:13;11.50;;;5.05;;
60416;SDS011;46263;44.726;10.396;2024-02-14T05:23:38;11.98;;;4.60;;
60416;SDS011;46263;44.726;10.396;2024-02-14T05:26:04;9.38;;;4.65;;
60416;SDS011;46263;44.726;10.396;2024-02-14T05:28:30;8.23;;;4.40;;
60416;SDS011;46263;44.726;10.396;2024-02-14T05:30:56;9.95;;;4.40;;
60416;SDS011;46263;44.726;10.396;2024-02-14T05:33:22;7.70;;;3.33;;
60416;SDS011;46263;44.726;10.396;2024-02-14T05:35:51;5.88;;;3.83;;
60416;SDS011;46263;44.726;10.396;2024-02-14T05:38:17;4.28;;;3.00;;
60416;SDS011;46263;44.726;10.396;2024-02-14T05:40:46;4.78;;;3.25;;
60416;SDS011;46263;44.726;10.396;2024-02-14T05:43:13;3.75;;;2.42;;
60416;SDS011;46263;44.726;10.396;2024-02-14T05:45:38;4.28;;;2.17;;
60416;SDS011;46263;44.726;10.396;2024-02-14T05:48:04;2.80;;;2.10;;
60416;SDS011;46263;44.726;10.396;2024-02-14T05:50:30;3.88;;;2.53;;
60416;SDS011;46263;44.726;10.396;2024-02-14T05:52:55;6.15;;;2.92;;
60416;SDS011;46263;44.726;10.396;2024-02-14T05:55:23;4.82;;;2.88;;
60416;SDS011;46263;44.726;10.396;2024-02-14T05:57:49;5.10;;;2.92;;
60416;SDS011;46263;44.726;10.396;2024-02-14T06:00:17;4.75;;;3.10;;
60416;SDS011;46263;44.726;10.396;2024-02-14T06:02:44;5.97;;;2.88;;
60416;SDS011;46263;44.726;10.396;2024-02-14T06:05:09;6.43;;;3.20;;
60416;SDS011;46263;44.726;10.396;2024-02-14T06:07:36;7.50;;;3.20;;
60416;SDS011;46263;44.726;10.396;2024-02-14T06:10:02;5.82;;;2.80;;
60416;SDS011;46263;44.726;10.396;2024-02-14T06:12:27;5.78;;;3.00;;
60416;SDS011;46263;44.726;10.396;2024-02-14T06:14:54;5.15;;;2.20;;
60416;SDS011;46263;44.726;10.396;2024-02-14T06:17:20;5.93;;;2.60;;
60416;SDS011;46263;44.726;10.396;2024-02-14T06:19:46;4.72;;;2.35;;
60416;SDS011;46263;44.726;10.396;2024-02-14T06:22:11;5.57;;;1.88;;
60416;SDS011;46263;44.726;10.396;2024-02-14T06:24:37;3.47;;;2.28;;
60416;SDS011;46263;44.726;10.396;2024-02-14T06:27:02;2.85;;;2.50;;
60416;SDS011;46263;44.726;10.396;2024-02-14T06:29:28;10.13;;;2.30;;
60416;SDS011;46263;44.726;10.396;2024-02-14T06:31:53;4.55;;;2.20;;
60416;SDS011;46263;44.726;10.396;2024-02-14T06:34:19;5.55;;;1.85;;
60416;SDS011;46263;44.726;10.396;2024-02-14T06:36:46;3.67;;;1.85;;
60416;SDS011;46263;44.726;10.396;2024-02-14T06:39:21;4.88;;;2.00;;
60416;SDS011;46263;44.726;10.396;2024-02-14T06:41:46;4.75;;;2.35;;
60416;SDS011;46263;44.726;10.396;2024-02-14T06:44:13;4.13;;;2.10;;
60416;SDS011;46263;44.726;10.396;2024-02-14T06:46:38;3.72;;;2.33;;
60416;SDS011;46263;44.726;10.396;2024-02-14T06:49:04;4.68;;;2.17;;
60416;SDS011;46263;44.726;10.396;2024-02-14T06:51:30;4.63;;;2.30;;
60416;SDS011;46263;44.726;10.396;2024-02-14T06:53:55;4.43;;;2.65;;
60416;SDS011;46263;44.726;10.396;2024-02-14T06:56:21;3.67;;;2.33;;
60416;SDS011;46263;44.726;10.396;2024-02-14T06:58:47;6.80;;;2.35;;
60416;SDS011;46263;44.726;10.396;2024-02-14T07:01:17;3.92;;;2.45;;
60416;SDS011;46263;44.726;10.396;2024-02-14T07:03:47;4.68;;;2.97;;
60416;SDS011;46263;44.726;10.396;2024-02-14T07:06:13;6.47;;;3.00;;
60416;SDS011;46263;44.726;10.396;2024-02-14T07:08:41;6.00;;;2.90;;
60416;SDS011;46263;44.726;10.396;2024-02-14T07:11:07;12.02;;;3.42;;
60416;SDS011;46263;44.726;10.396;2024-02-14T07:13:32;3.97;;;2.72;;
60416;SDS011;46263;44.726;10.396;2024-02-14T07:15:58;3.22;;;2.38;;
60416;SDS011;46263;44.726;10.396;2024-02-14T07:18:23;9.18;;;2.50;;
60416;SDS011;46263;44.726;10.396;2024-02-14T07:20:49;4.32;;;2.55;;
60416;SDS011;46263;44.726;10.396;2024-02-14T07:23:14;5.70;;;2.33;;
60416;SDS011;46263;44.726;10.396;2024-02-14T07:25:40;3.08;;;2.20;;
60416;SDS011;46263;44.726;10.396;2024-02-14T07:28:05;7.68;;;2.30;;
60416;SDS011;46263;44.726;10.396;2024-02-14T07:30:31;2.22;;;1.98;;
60416;SDS011;46263;44.726;10.396;2024-02-14T07:32:56;7.70;;;2.25;;
60416;SDS011;46263;44.726;10.396;2024-02-14T07:35:22;3.38;;;2.05;;
60416;SDS011;46263;44.726;10.396;2024-02-14T07:37:48;4.90;;;1.92;;
60416;SDS011;46263;44.726;10.396;2024-02-14T07:40:13;4.50;;;2.20;;
60416;SDS011;46263;44.726;10.396;2024-02-14T07:42:39;4.30;;;1.90;;
60416;SDS011;46263;44.726;10.396;2024-02-14T07:45:05;7.97;;;2.20;;
60416;SDS011;46263;44.726;10.396;2024-02-14T07:47:30;5.00;;;2.40;;
60416;SDS011;46263;44.726;10.396;2024-02-14T07:49:56;3.10;;;1.95;;
60416;SDS011;46263;44.726;10.396;2024-02-14T07:52:22;3.65;;;2.50;;
60416;SDS011;46263;44.726;10.396;2024-02-14T07:54:51;2.05;;;1.90;;
60416;SDS011;46263;44.726;10.396;2024-02-14T07:57:18;5.40;;;2.38;;
60416;SDS011;46263;44.726;10.396;2024-02-14T07:59:44;3.35;;;2.30;;
60416;SDS011;46263;44.726;10.396;2024-02-14T08:02:09;4.47;;;2.17;;
60416;SDS011;46263;44.726;10.396;2024-02-14T08:04:35;7.30;;;2.20;;
60416;SDS011;46263;44.726;10.396;2024-02-14T08:07:01;4.45;;;2.42;;
60416;SDS011;46263;44.726;10.396;2024-02-14T08:09:26;4.22;;;2.80;;
60416;SDS011;46263;44.726;10.396;2024-02-14T08:11:52;4.47;;;3.08;;
60416;SDS011;46263;44.726;10.396;2024-02-14T08:14:18;3.38;;;2.90;;
60416;SDS011;46263;44.726;10.396;2024-02-14T08:16:44;4.32;;;3.10;;
60416;SDS011;46263;44.726;10.396;2024-02-14T08:19:09;5.28;;;3.50;;
60416;SDS011;46263;44.726;10.396;2024-02-14T08:21:35;10.95;;;4.07;;
60416;SDS011;46263;44.726;10.396;2024-02-14T08:24:01;8.57;;;4.32;;
60416;SDS011;46263;44.726;10.396;2024-02-14T08:26:27;8.90;;;4.25;;
60416;SDS011;46263;44.726;10.396;2024-02-14T08:28:56;9.63;;;4.93;;
60416;SDS011;46263;44.726;10.396;2024-02-14T08:31:23;6.70;;;4.28;;
60416;SDS011;46263;44.726;10.396;2024-02-14T08:33:49;8.73;;;5.00;;
60416;SDS011;46263;44.726;10.396;2024-02-14T08:36:14;8.90;;;4.50;;
60416;SDS011;46263;44.726;10.396;2024-02-14T08:38:42;12.32;;;5.40;;
60416;SDS011;46263;44.726;10.396;2024-02-14T08:41:08;7.25;;;4.18;;
60416;SDS011;46263;44.726;10.396;2024-02-14T08:43:33;9.18;;;5.07;;
60416;SDS011;46263;44.726;10.396;2024-02-14T08:45:59;8.43;;;4.55;;
60416;SDS011;46263;44.726;10.396;2024-02-14T08:48:24;8.85;;;4.35;;
60416;SDS011;46263;44.726;10.396;2024-02-14T08:50:52;6.10;;;3.90;;
60416;SDS011;46263;44.726;10.396;2024-02-14T08:53:18;11.55;;;5.10;;
60416;SDS011;46263;44.726;10.396;2024-02-14T08:55:44;9.10;;;3.88;;
60416;SDS011;46263;44.726;10.396;2024-02-14T08:58:09;7.03;;;4.00;;
60416;SDS011;46263;44.726;10.396;2024-02-14T09:00:35;6.40;;;4.25;;
60416;SDS011;46263;44.726;10.396;2024-02-14T09:03:02;8.25;;;4.82;;
60416;SDS011;46263;44.726;10.396;2024-02-14T09:05:29;10.00;;;4.55;;
60416;SDS011;46263;44.726;10.396;2024-02-14T09:07:55;8.38;;;4.22;;
60416;SDS011;46263;44.726;10.396;2024-02-14T09:10:21;7.40;;;4.30;;
60416;SDS011;46263;44.726;10.396;2024-02-14T09:12:47;5.55;;;4.20;;
60416;SDS011;46263;44.726;10.396;2024-02-14T09:15:13;8.60;;;4.43;;
60416;SDS011;46263;44.726;10.396;2024-02-14T09:17:39;9.95;;;4.50;;
60416;SDS011;46263;44.726;10.396;2024-02-14T09:20:06;8.98;;;4.43;;
60416;SDS011;46263;44.726;10.396;2024-02-14T09:22:35;7.78;;;4.40;;
60416;SDS011;46263;44.726;10.396;2024-02-14T09:25:02;8.43;;;4.35;;
60416;SDS011;46263;44.726;10.396;2024-02-14T09:27:31;6.97;;;3.95;;
60416;SDS011;46263;44.726;10.396;2024-02-14T09:29:58;7.07;;;4.00;;
60416;SDS011;46263;44.726;10.396;2024-02-14T09:32:24;7.93;;;3.90;;
60416;SDS011;46263;44.726;10.396;2024-02-14T09:34:50;6.95;;;4.13;;
60416;SDS011;46263;44.726;10.396;2024-02-14T09:37:16;10.50;;;4.28;;
60416;SDS011;46263;44.726;10.396;2024-02-14T09:39:42;8.85;;;4.07;;
60416;SDS011;46263;44.726;10.396;2024-02-14T09:42:11;5.53;;;3.50;;
60416;SDS011;46263;44.726;10.396;2024-02-14T09:44:40;7.13;;;3.83;;
60416;SDS011;46263;44.726;10.396;2024-02-14T09:47:06;6.30;;;3.65;;
60416;SDS011;46263;44.726;10.396;2024-02-14T09:49:34;7.40;;;3.72;;
60416;SDS011;46263;44.726;10.396;2024-02-14T09:52:02;5.28;;;3.60;;
60416;SDS011;46263;44.726;10.396;2024-02-14T09:54:28;7.32;;;4.30;;
60416;SDS011;46263;44.726;10.396;2024-02-14T09:56:57;7.85;;;3.95;;
60416;SDS011;46263;44.726;10.396;2024-02-14T09:59:23;7.78;;;4.60;;
60416;SDS011;46263;44.726;10.396;2024-02-14T10:01:49;5.47;;;4.38;;
60416;SDS011;46263;44.726;10.396;2024-02-14T10:04:16;7.30;;;3.70;;
60416;SDS011;46263;44.726;10.396;2024-02-14T10:06:44;7.43;;;4.13;;
60416;SDS011;46263;44.726;10.396;2024-02-14T10:09:10;7.68;;;5.10;;
60416;SDS011;46263;44.726;10.396;2024-02-14T10:11:37;8.68;;;5.10;;
60416;SDS011;46263;44.726;10.396;2024-02-14T10:14:06;8.13;;;4.38;;
60416;SDS011;46263;44.726;10.396;2024-02-14T10:16:34;4.88;;;4.18;;
60416;SDS011;46263;44.726;10.396;2024-02-14T10:19:01;10.82;;;4.65;;
60416;SDS011;46263;44.726;10.396;2024-02-14T10:21:27;8.10;;;4.85;;
60416;SDS011;46263;44.726;10.396;2024-02-14T10:23:53;7.75;;;5.40;;
60416;SDS011;46263;44.726;10.396;2024-02-14T10:26:22;8.45;;;4.97;;
60416;SDS011;46263;44.726;10.396;2024-02-14T10:28:48;9.20;;;4.80;;
60416;SDS011;46263;44.726;10.396;2024-02-14T10:31:16;9.18;;;5.30;;
60416;SDS011;46263;44.726;10.396;2024-02-14T10:33:41;9.13;;;4.50;;
60416;SDS011;46263;44.726;10.396;2024-02-14T10:36:08;11.50;;;6.28;;
60416;SDS011;46263;44.726;10.396;2024-02-14T10:38:34;12.20;;;6.43;;
60416;SDS011;46263;44.726;10.396;2024-02-14T10:41:02;11.50;;;5.65;;
60416;SDS011;46263;44.726;10.396;2024-02-14T10:43:31;11.52;;;6.60;;
60416;SDS011;46263;44.726;10.396;2024-02-14T10:45:59;10.95;;;6.07;;
60416;SDS011;46263;44.726;10.396;2024-02-14T10:48:31;9.93;;;5.55;;
60416;SDS011;46263;44.726;10.396;2024-02-14T10:51:04;10.43;;;5.82;;
60416;SDS011;46263;44.726;10.396;2024-02-14T10:53:32;12.40;;;6.72;;
60416;SDS011;46263;44.726;10.396;2024-02-14T10:55:59;11.45;;;6.45;;
60416;SDS011;46263;44.726;10.396;2024-02-14T10:58:26;13.07;;;7.22;;
60416;SDS011;46263;44.726;10.396;2024-02-14T11:00:58;12.50;;;6.88;;
60416;SDS011;46263;44.726;10.396;2024-02-14T11:03:24;12.55;;;7.25;;
60416;SDS011;46263;44.726;10.396;2024-02-14T11:05:53;10.25;;;6.43;;
60416;SDS011;46263;44.726;10.396;2024-02-14T11:08:28;11.48;;;7.20;;
60416;SDS011;46263;44.726;10.396;2024-02-14T11:10:56;15.27;;;7.53;;
60416;SDS011;46263;44.726;10.396;2024-02-14T11:13:26;15.07;;;7.72;;
60416;SDS011;46263;44.726;10.396;2024-02-14T11:15:55;13.20;;;8.38;;
60416;SDS011;46263;44.726;10.396;2024-02-14T11:18:25;16.35;;;9.38;;
60416;SDS011;46263;44.726;10.396;2024-02-14T11:20:55;21.55;;;9.82;;
60416;SDS011;46263;44.726;10.396;2024-02-14T11:23:23;18.20;;;9.15;;
60416;SDS011;46263;44.726;10.396;2024-02-14T11:25:48;15.68;;;8.52;;
60416;SDS011;46263;44.726;10.396;2024-02-14T11:28:17;14.30;;;7.72;;
60416;SDS011;46263;44.726;10.396;2024-02-14T11:30:49;14.35;;;8.25;;
60416;SDS011;46263;44.726;10.396;2024-02-14T11:33:15;13.63;;;7.80;;
60416;SDS011;46263;44.726;10.396;2024-02-14T11:35:45;12.95;;;7.32;;
60416;SDS011;46263;44.726;10.396;2024-02-14T11:38:18;11.48;;;7.20;;
60416;SDS011;46263;44.726;10.396;2024-02-14T11:40:47;12.65;;;7.22;;
60416;SDS011;46263;44.726;10.396;2024-02-14T11:43:14;11.02;;;7.07;;
60416;SDS011;46263;44.726;10.396;2024-02-14T11:45:42;12.60;;;7.20;;
60416;SDS011;46263;44.726;10.396;2024-02-14T11:48:12;12.93;;;7.47;;
60416;SDS011;46263;44.726;10.396;2024-02-14T11:50:41;13.23;;;7.03;;
60416;SDS011;46263;44.726;10.396;2024-02-14T11:53:11;16.70;;;7.67;;
60416;SDS011;46263;44.726;10.396;2024-02-14T11:55:38;15.10;;;7.53;;
60416;SDS011;46263;44.726;10.396;2024-02-14T11:58:09;15.07;;;7.47;;
60416;SDS011;46263;44.726;10.396;2024-02-14T12:00:38;13.30;;;7.38;;
60416;SDS011;46263;44.726;10.396;2024-02-14T12:03:16;13.57;;;6.95;;
60416;SDS011;46263;44.726;10.396;2024-02-14T12:05:43;12.38;;;6.85;;
60416;SDS011;46263;44.726;10.396;2024-02-14T12:08:12;11.50;;;6.35;;
60416;SDS011;46263;44.726;10.396;2024-02-14T12:10:39;13.40;;;6.57;;
60416;SDS011;46263;44.726;10.396;2024-02-14T12:13:08;10.85;;;6.53;;
60416;SDS011;46263;44.726;10.396;2024-02-14T12:15:40;11.60;;;6.15;;
60416;SDS011;46263;44.726;10.396;2024-02-14T12:18:09;11.15;;;6.38;;
60416;SDS011;46263;44.726;10.396;2024-02-14T12:20:35;10.50;;;5.97;;
60416;SDS011;46263;44.726;10.396;2024-02-14T12:23:02;15.18;;;6.05;;
60416;SDS011;46263;44.726;10.396;2024-02-14T12:25:28;11.88;;;6.63;;
60416;SDS011;46263;44.726;10.396;2024-02-14T12:27:58;10.70;;;5.70;;
60416;SDS011;46263;44.726;10.396;2024-02-14T12:33:21;12.50;;;6.90;;
60416;SDS011;46263;44.726;10.396;2024-02-14T12:35:52;12.70;;;6.82;;
60416;SDS011;46263;44.726;10.396;2024-02-14T12:38:19;15.90;;;6.68;;
60416;SDS011;46263;44.726;10.396;2024-02-14T12:40:45;12.82;;;6.15;;
60416;SDS011;46263;44.726;10.396;2024-02-14T12:43:12;12.18;;;6.15;;
60416;SDS011;46263;44.726;10.396;2024-02-14T12:45:39;10.98;;;6.00;;
60416;SDS011;46263;44.726;10.396;2024-02-14T12:48:06;14.00;;;6.95;;
60416;SDS011;46263;44.726;10.396;2024-02-14T12:50:33;12.80;;;6.75;;
60416;SDS011;46263;44.726;10.396;2024-02-14T12:53:02;12.02;;;7.03;;
60416;SDS011;46263;44.726;10.396;2024-02-14T12:55:28;13.55;;;7.85;;
60416;SDS011;46263;44.726;10.396;2024-02-14T12:57:54;16.55;;;8.05;;
60416;SDS011;46263;44.726;10.396;2024-02-14T13:00:21;11.25;;;7.30;;
60416;SDS011;46263;44.726;10.396;2024-02-14T13:02:47;14.38;;;7.65;;
60416;SDS011;46263;44.726;10.396;2024-02-14T13:05:13;13.70;;;8.10;;
60416;SDS011;46263;44.726;10.396;2024-02-14T13:07:39;15.98;;;7.35;;
60416;SDS011;46263;44.726;10.396;2024-02-14T13:10:05;14.55;;;8.10;;
60416;SDS011;46263;44.726;10.396;2024-02-14T13:12:33;13.20;;;7.22;;
60416;SDS011;46263;44.726;10.396;2024-02-14T13:14:58;15.20;;;8.45;;
60416;SDS011;46263;44.726;10.396;2024-02-14T13:17:24;13.38;;;8.30;;
60416;SDS011;46263;44.726;10.396;2024-02-14T13:19:50;16.23;;;8.30;;
60416;SDS011;46263;44.726;10.396;2024-02-14T13:22:18;14.82;;;8.02;;
60416;SDS011;46263;44.726;10.396;2024-02-14T13:24:43;14.70;;;8.68;;
60416;SDS011;46263;44.726;10.396;2024-02-14T13:27:09;15.95;;;7.78;;
60416;SDS011;46263;44.726;10.396;2024-02-14T13:29:35;15.30;;;8.57;;
60416;SDS011;46263;44.726;10.396;2024-02-14T13:32:00;16.42;;;9.05;;
60416;SDS011;46263;44.726;10.396;2024-02-14T13:34:27;14.55;;;8.80;;
60416;SDS011;46263;44.726;10.396;2024-02-14T13:36:53;16.13;;;7.70;;
60416;SDS011;46263;44.726;10.396;2024-02-14T13:39:23;12.65;;;7.22;;
60416;SDS011;46263;44.726;10.396;2024-02-14T13:41:48;14.20;;;8.27;;
60416;SDS011;46263;44.726;10.396;2024-02-14T13:44:14;14.98;;;7.63;;
60416;SDS011;46263;44.726;10.396;2024-02-14T13:46:43;17.63;;;8.57;;
60416;SDS011;46263;44.726;10.396;2024-02-14T13:49:10;15.82;;;8.63;;
60416;SDS011;46263;44.726;10.396;2024-02-14T13:51:36;17.08;;;8.77;;
60416;SDS011;46263;44.726;10.396;2024-02-14T13:54:02;17.23;;;9.18;;
60416;SDS011;46263;44.726;10.396;2024-02-14T13:56:28;15.45;;;8.93;;
60416;SDS011;46263;44.726;10.396;2024-02-14T13:58:54;16.17;;;8.85;;
60416;SDS011;46263;44.726;10.396;2024-02-14T14:01:19;17.60;;;9.68;;
60416;SDS011;46263;44.726;10.396;2024-02-14T14:03:45;17.00;;;9.13;;
60416;SDS011;46263;44.726;10.396;2024-02-14T14:06:12;17.30;;;9.80;;
60416;SDS011;46263;44.726;10.396;2024-02-14T14:08:37;17.27;;;9.48;;
60416;SDS011;46263;44.726;10.396;2024-02-14T14:11:03;17.80;;;10.05;;
60416;SDS011;46263;44.726;10.396;2024-02-14T14:13:29;14.93;;;8.88;;
60416;SDS011;46263;44.726;10.396;2024-02-14T14:15:58;16.80;;;9.00;;
60416;SDS011;46263;44.726;10.396;2024-02-14T14:18:24;16.15;;;9.63;;
60416;SDS011;46263;44.726;10.396;2024-02-14T14:20:50;18.33;;;9.38;;
60416;SDS011;46263;44.726;10.396;2024-02-14T14:23:15;14.55;;;7.80;;
60416;SDS011;46263;44.726;10.396;2024-02-14T14:25:41;15.90;;;9.02;;